Shell Lake, Canada
Current Conditions -  °F | °C
As of 3:00 AM on Monday 20 Oct 2014 (Local Time) from CYPA Reporting Station
Clear Clear  
Wind Chill: 31°   Ceiling: Unl
Heat Index: 37°   Visibility: 15mi
Dew Point: 36°   Wind: 9mph
Humidity: 93%   Direction: 80°E
Pressure: 29.81"   Gusts: NA
Location:  53.3°N, 107.05°W
Report Text: CYPA 200900Z 08008KT 15SM SKC 03/02 A2981 RMK SLP107
Loading
Personal Weather Stations






























Interactive Weather Map New forecast layout! Learn more

10-Day Weather Forecast

Advertisements
Track Severe Weather on mobile